sensor_id;sensor_type;location;lat;lon;timestamp;pressure;altitude;pressure_sealevel;temperature;humidity
66479;BME280;53294;47.912;13.526;2023-03-15T00:01:47;95466.38;;;4.99;68.95
66479;BME280;53294;47.912;13.526;2023-03-15T00:04:13;95459.44;;;4.98;68.95
66479;BME280;53294;47.912;13.526;2023-03-15T00:06:40;95457.22;;;4.76;69.18
66479;BME280;53294;47.912;13.526;2023-03-15T00:09:07;95462.44;;;4.36;70.76
66479;BME280;53294;47.912;13.526;2023-03-15T00:11:33;95473.91;;;4.37;71.35
66479;BME280;53294;47.912;13.526;2023-03-15T00:14:00;95469.72;;;4.15;71.43
66479;BME280;53294;47.912;13.526;2023-03-15T00:16:28;95475.34;;;3.93;72.90
66479;BME280;53294;47.912;13.526;2023-03-15T00:18:55;95467.09;;;3.94;72.75
66479;BME280;53294;47.912;13.526;2023-03-15T00:21:22;95466.31;;;3.99;72.67
66479;BME280;53294;47.912;13.526;2023-03-15T00:23:49;95465.56;;;3.83;72.94
66479;BME280;53294;47.912;13.526;2023-03-15T00:26:16;95467.97;;;3.80;73.27
66479;BME280;53294;47.912;13.526;2023-03-15T00:28:43;95463.69;;;3.84;72.98
66479;BME280;53294;47.912;13.526;2023-03-15T00:31:21;95461.06;;;3.73;73.17
66479;BME280;53294;47.912;13.526;2023-03-15T00:33:48;95468.50;;;3.76;73.10
66479;BME280;53294;47.912;13.526;2023-03-15T00:36:20;95472.22;;;3.75;72.86
66479;BME280;53294;47.912;13.526;2023-03-15T00:38:54;95463.75;;;3.58;73.32
66479;BME280;53294;47.912;13.526;2023-03-15T00:41:22;95474.34;;;3.63;73.39
66479;BME280;53294;47.912;13.526;2023-03-15T00:43:49;95475.63;;;3.86;72.34
66479;BME280;53294;47.912;13.526;2023-03-15T00:46:17;95482.84;;;3.75;71.90
66479;BME280;53294;47.912;13.526;2023-03-15T00:48:47;95481.25;;;3.74;71.57
66479;BME280;53294;47.912;13.526;2023-03-15T00:51:17;95475.94;;;3.80;71.60
66479;BME280;53294;47.912;13.526;2023-03-15T00:53:46;95468.50;;;3.76;71.37
66479;BME280;53294;47.912;13.526;2023-03-15T00:56:16;95472.19;;;3.86;70.59
66479;BME280;53294;47.912;13.526;2023-03-15T00:58:43;95472.19;;;3.91;71.00
66479;BME280;53294;47.912;13.526;2023-03-15T01:01:16;95469.75;;;3.94;70.32
66479;BME280;53294;47.912;13.526;2023-03-15T01:03:44;95476.94;;;3.99;70.34
66479;BME280;53294;47.912;13.526;2023-03-15T01:06:13;95471.63;;;3.94;69.79
66479;BME280;53294;47.912;13.526;2023-03-15T01:08:40;95474.03;;;3.95;69.59
66479;BME280;53294;47.912;13.526;2023-03-15T01:11:17;95470.59;;;3.95;69.79
66479;BME280;53294;47.912;13.526;2023-03-15T01:13:44;95460.50;;;3.92;69.02
66479;BME280;53294;47.912;13.526;2023-03-15T01:16:12;95454.38;;;3.91;68.63
66479;BME280;53294;47.912;13.526;2023-03-15T01:18:40;95455.69;;;3.94;68.61
66479;BME280;53294;47.912;13.526;2023-03-15T01:21:08;95463.66;;;4.04;68.26
66479;BME280;53294;47.912;13.526;2023-03-15T01:23:35;95454.09;;;3.93;67.88
66479;BME280;53294;47.912;13.526;2023-03-15T01:26:04;95449.84;;;3.87;69.15
66479;BME280;53294;47.912;13.526;2023-03-15T01:28:31;95448.78;;;3.93;68.53
66479;BME280;53294;47.912;13.526;2023-03-15T01:30:58;95448.28;;;3.81;68.58
66479;BME280;53294;47.912;13.526;2023-03-15T01:33:26;95441.88;;;3.97;68.42
66479;BME280;53294;47.912;13.526;2023-03-15T01:36:00;95447.47;;;3.85;68.20
66479;BME280;53294;47.912;13.526;2023-03-15T01:38:28;95446.47;;;3.76;68.91
66479;BME280;53294;47.912;13.526;2023-03-15T01:40:55;95445.63;;;3.81;69.30
66479;BME280;53294;47.912;13.526;2023-03-15T01:43:25;95447.22;;;3.82;68.54
66479;BME280;53294;47.912;13.526;2023-03-15T01:51:03;95423.84;;;3.78;69.65
66479;BME280;53294;47.912;13.526;2023-03-15T01:53:31;95426.47;;;3.84;69.58
66479;BME280;53294;47.912;13.526;2023-03-15T01:55:58;95421.34;;;4.13;68.54
66479;BME280;53294;47.912;13.526;2023-03-15T01:58:27;95421.00;;;4.35;67.84
66479;BME280;53294;47.912;13.526;2023-03-15T02:00:54;95419.28;;;4.55;67.04
66479;BME280;53294;47.912;13.526;2023-03-15T02:03:24;95412.72;;;4.81;66.49
66479;BME280;53294;47.912;13.526;2023-03-15T02:05:59;95408.38;;;4.96;66.45
66479;BME280;53294;47.912;13.526;2023-03-15T02:08:30;95403.50;;;5.08;65.91
66479;BME280;53294;47.912;13.526;2023-03-15T02:11:00;95399.16;;;5.17;65.73
66479;BME280;53294;47.912;13.526;2023-03-15T02:13:30;95398.16;;;5.08;66.08
66479;BME280;53294;47.912;13.526;2023-03-15T02:15:58;95409.94;;;4.97;66.87
66479;BME280;53294;47.912;13.526;2023-03-15T02:18:25;95401.69;;;4.98;66.96
66479;BME280;53294;47.912;13.526;2023-03-15T02:21:10;95409.19;;;5.26;66.77
66479;BME280;53294;47.912;13.526;2023-03-15T02:23:39;95409.28;;;5.45;65.76
66479;BME280;53294;47.912;13.526;2023-03-15T02:26:29;95406.34;;;5.46;66.28
66479;BME280;53294;47.912;13.526;2023-03-15T02:28:59;95409.19;;;5.55;65.48
66479;BME280;53294;47.912;13.526;2023-03-15T02:31:27;95402.41;;;5.68;65.04
66479;BME280;53294;47.912;13.526;2023-03-15T02:33:54;95407.25;;;5.61;64.92
66479;BME280;53294;47.912;13.526;2023-03-15T02:36:25;95399.66;;;5.73;64.73
66479;BME280;53294;47.912;13.526;2023-03-15T02:38:53;95411.94;;;5.74;64.81
66479;BME280;53294;47.912;13.526;2023-03-15T02:41:25;95408.41;;;5.79;64.66
66479;BME280;53294;47.912;13.526;2023-03-15T02:43:58;95407.63;;;5.78;65.01
66479;BME280;53294;47.912;13.526;2023-03-15T02:46:27;95407.50;;;5.88;64.27
66479;BME280;53294;47.912;13.526;2023-03-15T02:48:54;95406.94;;;5.91;64.21
66479;BME280;53294;47.912;13.526;2023-03-15T02:51:27;95411.97;;;5.98;64.70
66479;BME280;53294;47.912;13.526;2023-03-15T02:53:54;95415.94;;;6.01;64.40
66479;BME280;53294;47.912;13.526;2023-03-15T02:56:21;95430.69;;;5.64;65.92
66479;BME280;53294;47.912;13.526;2023-03-15T02:58:47;95438.09;;;5.67;65.88
66479;BME280;53294;47.912;13.526;2023-03-15T03:01:15;95437.44;;;5.21;66.28
66479;BME280;53294;47.912;13.526;2023-03-15T03:03:44;95448.19;;;5.11;67.13
66479;BME280;53294;47.912;13.526;2023-03-15T03:06:11;95449.75;;;5.17;66.99
66479;BME280;53294;47.912;13.526;2023-03-15T03:08:38;95446.19;;;4.93;68.16
66479;BME280;53294;47.912;13.526;2023-03-15T03:11:05;95459.63;;;4.67;69.01
66479;BME280;53294;47.912;13.526;2023-03-15T03:13:32;95460.25;;;4.48;69.68
66479;BME280;53294;47.912;13.526;2023-03-15T03:15:59;95461.69;;;4.30;70.84
66479;BME280;53294;47.912;13.526;2023-03-15T03:18:29;95476.84;;;4.25;70.73
66479;BME280;53294;47.912;13.526;2023-03-15T03:20:57;95476.84;;;4.35;70.25
66479;BME280;53294;47.912;13.526;2023-03-15T03:23:25;95488.81;;;4.27;70.76
66479;BME280;53294;47.912;13.526;2023-03-15T03:25:52;95503.00;;;3.92;72.24
66479;BME280;53294;47.912;13.526;2023-03-15T03:28:20;95510.47;;;3.80;72.89
66479;BME280;53294;47.912;13.526;2023-03-15T03:30:47;95520.56;;;3.52;74.23
66479;BME280;53294;47.912;13.526;2023-03-15T03:33:13;95534.13;;;3.45;74.29
66479;BME280;53294;47.912;13.526;2023-03-15T03:35:41;95539.69;;;3.44;74.14
66479;BME280;53294;47.912;13.526;2023-03-15T03:38:09;95548.72;;;3.42;74.24
66479;BME280;53294;47.912;13.526;2023-03-15T03:40:39;95560.66;;;3.40;73.83
66479;BME280;53294;47.912;13.526;2023-03-15T03:43:07;95558.03;;;3.45;73.26
66479;BME280;53294;47.912;13.526;2023-03-15T03:45:34;95563.09;;;3.62;72.59
66479;BME280;53294;47.912;13.526;2023-03-15T03:48:01;95569.97;;;3.73;71.95
66479;BME280;53294;47.912;13.526;2023-03-15T03:50:28;95568.91;;;3.69;72.97
66479;BME280;53294;47.912;13.526;2023-03-15T03:52:55;95573.69;;;3.67;72.79
66479;BME280;53294;47.912;13.526;2023-03-15T03:55:21;95578.50;;;3.65;72.95
66479;BME280;53294;47.912;13.526;2023-03-15T03:57:51;95581.66;;;3.67;72.87
66479;BME280;53294;47.912;13.526;2023-03-15T04:00:19;95583.22;;;3.27;74.73
66479;BME280;53294;47.912;13.526;2023-03-15T04:02:45;95585.25;;;2.94;75.74
66479;BME280;53294;47.912;13.526;2023-03-15T04:05:12;95593.75;;;2.86;76.53
66479;BME280;53294;47.912;13.526;2023-03-15T04:07:39;95596.91;;;2.88;76.19
66479;BME280;53294;47.912;13.526;2023-03-15T04:10:07;95600.03;;;2.69;77.26
66479;BME280;53294;47.912;13.526;2023-03-15T04:12:34;95609.00;;;2.58;77.53
66479;BME280;53294;47.912;13.526;2023-03-15T04:15:01;95607.34;;;2.47;78.02
66479;BME280;53294;47.912;13.526;2023-03-15T04:17:28;95611.06;;;2.46;78.82
66479;BME280;53294;47.912;13.526;2023-03-15T04:19:54;95610.56;;;2.59;77.98
66479;BME280;53294;47.912;13.526;2023-03-15T04:22:21;95618.00;;;2.57;77.79
66479;BME280;53294;47.912;13.526;2023-03-15T04:24:48;95620.06;;;2.45;78.21
66479;BME280;53294;47.912;13.526;2023-03-15T04:27:16;95623.53;;;2.50;78.20
66479;BME280;53294;47.912;13.526;2023-03-15T04:29:42;95623.88;;;2.64;77.54
66479;BME280;53294;47.912;13.526;2023-03-15T04:32:10;95624.72;;;2.75;76.88
66479;BME280;53294;47.912;13.526;2023-03-15T04:34:37;95633.34;;;2.50;78.26
66479;BME280;53294;47.912;13.526;2023-03-15T04:37:04;95627.06;;;2.61;77.62
66479;BME280;53294;47.912;13.526;2023-03-15T04:39:31;95644.53;;;2.57;77.73
66479;BME280;53294;47.912;13.526;2023-03-15T04:41:58;95642.91;;;2.51;78.45
66479;BME280;53294;47.912;13.526;2023-03-15T04:44:24;95645.19;;;2.37;78.95
66479;BME280;53294;47.912;13.526;2023-03-15T04:46:53;95650.84;;;2.51;78.16
66479;BME280;53294;47.912;13.526;2023-03-15T04:49:21;95647.16;;;2.52;78.21
66479;BME280;53294;47.912;13.526;2023-03-15T04:51:47;95653.00;;;2.59;78.15
66479;BME280;53294;47.912;13.526;2023-03-15T04:54:14;95660.78;;;2.71;77.13
66479;BME280;53294;47.912;13.526;2023-03-15T04:56:41;95666.81;;;2.61;77.78
66479;BME280;53294;47.912;13.526;2023-03-15T04:59:08;95668.81;;;2.44;78.51
66479;BME280;53294;47.912;13.526;2023-03-15T05:01:36;95673.94;;;2.56;78.19
66479;BME280;53294;47.912;13.526;2023-03-15T05:04:03;95675.31;;;2.63;77.30
66479;BME280;53294;47.912;13.526;2023-03-15T05:06:29;95682.06;;;2.86;75.95
66479;BME280;53294;47.912;13.526;2023-03-15T05:08:56;95682.91;;;2.92;75.73
66479;BME280;53294;47.912;13.526;2023-03-15T05:11:23;95685.31;;;2.99;75.21
66479;BME280;53294;47.912;13.526;2023-03-15T05:13:50;95684.56;;;3.14;74.65
66479;BME280;53294;47.912;13.526;2023-03-15T05:16:16;95691.53;;;3.35;73.82
66479;BME280;53294;47.912;13.526;2023-03-15T05:18:43;95696.41;;;3.59;72.98
66479;BME280;53294;47.912;13.526;2023-03-15T05:21:11;95701.16;;;3.57;73.36
66479;BME280;53294;47.912;13.526;2023-03-15T05:23:39;95703.81;;;3.52;73.55
66479;BME280;53294;47.912;13.526;2023-03-15T05:26:06;95701.63;;;3.28;74.48
66479;BME280;53294;47.912;13.526;2023-03-15T05:28:32;95708.34;;;2.88;75.66
66479;BME280;53294;47.912;13.526;2023-03-15T05:30:59;95697.72;;;2.88;75.78
66479;BME280;53294;47.912;13.526;2023-03-15T05:33:28;95711.69;;;2.68;76.24
66479;BME280;53294;47.912;13.526;2023-03-15T05:35:55;95715.19;;;2.79;75.77
66479;BME280;53294;47.912;13.526;2023-03-15T05:38:22;95724.50;;;2.81;76.41
66479;BME280;53294;47.912;13.526;2023-03-15T05:40:52;95722.06;;;2.75;76.76
66479;BME280;53294;47.912;13.526;2023-03-15T05:43:20;95738.22;;;2.73;77.04
66479;BME280;53294;47.912;13.526;2023-03-15T05:45:47;95754.84;;;2.58;77.38
66479;BME280;53294;47.912;13.526;2023-03-15T05:48:14;95753.25;;;2.62;77.25
66479;BME280;53294;47.912;13.526;2023-03-15T05:50:42;95764.22;;;2.39;77.67
66479;BME280;53294;47.912;13.526;2023-03-15T05:53:09;95775.13;;;2.10;78.88
66479;BME280;53294;47.912;13.526;2023-03-15T05:55:36;95778.63;;;1.88;79.80
66479;BME280;53294;47.912;13.526;2023-03-15T05:58:03;95786.84;;;1.65;80.75
66479;BME280;53294;47.912;13.526;2023-03-15T06:00:30;95797.38;;;1.59;80.46
66479;BME280;53294;47.912;13.526;2023-03-15T06:02:57;95801.00;;;1.53;80.59
66479;BME280;53294;47.912;13.526;2023-03-15T06:05:25;95816.03;;;1.70;79.68
66479;BME280;53294;47.912;13.526;2023-03-15T06:07:52;95830.75;;;1.38;80.10
66479;BME280;53294;47.912;13.526;2023-03-15T06:10:18;95837.63;;;1.39;80.27
66479;BME280;53294;47.912;13.526;2023-03-15T06:12:45;95865.53;;;1.47;79.74
66479;BME280;53294;47.912;13.526;2023-03-15T06:15:12;95872.16;;;1.28;79.66
66479;BME280;53294;47.912;13.526;2023-03-15T06:17:38;95880.34;;;1.09;80.99
66479;BME280;53294;47.912;13.526;2023-03-15T06:20:05;95900.94;;;1.07;80.88
66479;BME280;53294;47.912;13.526;2023-03-15T06:22:32;95914.59;;;0.99;80.85
66479;BME280;53294;47.912;13.526;2023-03-15T06:24:59;95924.75;;;0.90;80.75
66479;BME280;53294;47.912;13.526;2023-03-15T06:27:26;95941.50;;;0.96;80.62
66479;BME280;53294;47.912;13.526;2023-03-15T06:29:52;95948.81;;;1.05;80.06
66479;BME280;53294;47.912;13.526;2023-03-15T06:32:19;95961.97;;;1.17;79.70
66479;BME280;53294;47.912;13.526;2023-03-15T06:34:46;95976.56;;;1.03;79.81
66479;BME280;53294;47.912;13.526;2023-03-15T06:37:12;95980.47;;;1.00;79.98
66479;BME280;53294;47.912;13.526;2023-03-15T06:39:51;95998.19;;;1.00;80.15
66479;BME280;53294;47.912;13.526;2023-03-15T06:42:19;95999.88;;;1.06;79.96
66479;BME280;53294;47.912;13.526;2023-03-15T06:44:45;96011.50;;;1.05;80.21
66479;BME280;53294;47.912;13.526;2023-03-15T06:47:12;96017.06;;;1.20;79.69
66479;BME280;53294;47.912;13.526;2023-03-15T06:49:39;96025.16;;;1.14;79.64
66479;BME280;53294;47.912;13.526;2023-03-15T06:52:06;96026.44;;;1.11;79.70
66479;BME280;53294;47.912;13.526;2023-03-15T06:54:33;96044.91;;;1.23;79.09
66479;BME280;53294;47.912;13.526;2023-03-15T06:57:00;96039.09;;;1.09;79.60
66479;BME280;53294;47.912;13.526;2023-03-15T06:59:26;96044.94;;;1.11;79.60
66479;BME280;53294;47.912;13.526;2023-03-15T07:01:53;96055.59;;;1.16;79.15
66479;BME280;53294;47.912;13.526;2023-03-15T07:04:20;96062.09;;;1.08;79.31
66479;BME280;53294;47.912;13.526;2023-03-15T07:06:47;96062.31;;;1.07;79.37
66479;BME280;53294;47.912;13.526;2023-03-15T07:09:13;96070.59;;;1.11;79.34
66479;BME280;53294;47.912;13.526;2023-03-15T07:11:40;96071.47;;;1.16;79.21
66479;BME280;53294;47.912;13.526;2023-03-15T07:14:07;96088.44;;;1.32;78.64
66479;BME280;53294;47.912;13.526;2023-03-15T07:16:34;96087.91;;;1.47;78.09
66479;BME280;53294;47.912;13.526;2023-03-15T07:19:01;96085.66;;;1.39;78.09
66479;BME280;53294;47.912;13.526;2023-03-15T07:21:28;96099.44;;;1.41;78.40
66479;BME280;53294;47.912;13.526;2023-03-15T07:23:54;96100.38;;;1.35;77.88
66479;BME280;53294;47.912;13.526;2023-03-15T07:26:21;96107.63;;;1.39;77.91
66479;BME280;53294;47.912;13.526;2023-03-15T07:28:48;96116.94;;;1.42;77.99
66479;BME280;53294;47.912;13.526;2023-03-15T07:31:14;96122.22;;;1.42;78.04
66479;BME280;53294;47.912;13.526;2023-03-15T07:33:41;96128.00;;;1.39;78.12
66479;BME280;53294;47.912;13.526;2023-03-15T07:36:08;96129.25;;;1.36;79.03
66479;BME280;53294;47.912;13.526;2023-03-15T07:38:35;96134.34;;;1.55;78.23
66479;BME280;53294;47.912;13.526;2023-03-15T07:41:03;96134.03;;;1.51;78.40
66479;BME280;53294;47.912;13.526;2023-03-15T07:43:30;96142.81;;;1.69;77.66
66479;BME280;53294;47.912;13.526;2023-03-15T07:45:57;96149.06;;;1.63;77.68
66479;BME280;53294;47.912;13.526;2023-03-15T07:48:24;96148.56;;;1.66;77.96
66479;BME280;53294;47.912;13.526;2023-03-15T07:50:51;96146.34;;;1.74;77.93
66479;BME280;53294;47.912;13.526;2023-03-15T07:53:17;96155.50;;;1.84;77.21
66479;BME280;53294;47.912;13.526;2023-03-15T07:55:46;96159.03;;;1.89;77.13
66479;BME280;53294;47.912;13.526;2023-03-15T07:58:12;96150.34;;;1.94;76.89
66479;BME280;53294;47.912;13.526;2023-03-15T08:00:39;96159.50;;;1.86;77.01
66479;BME280;53294;47.912;13.526;2023-03-15T08:03:06;96159.84;;;2.07;76.57
66479;BME280;53294;47.912;13.526;2023-03-15T08:05:34;96167.47;;;2.20;76.15
66479;BME280;53294;47.912;13.526;2023-03-15T08:08:01;96163.28;;;2.24;75.65
66479;BME280;53294;47.912;13.526;2023-03-15T08:10:27;96162.06;;;2.32;75.06
66479;BME280;53294;47.912;13.526;2023-03-15T08:12:54;96162.38;;;2.36;75.00
66479;BME280;53294;47.912;13.526;2023-03-15T08:15:21;96169.44;;;2.47;74.41
66479;BME280;53294;47.912;13.526;2023-03-15T08:17:48;96160.16;;;2.27;74.46
66479;BME280;53294;47.912;13.526;2023-03-15T08:20:15;96156.75;;;2.49;74.48
66479;BME280;53294;47.912;13.526;2023-03-15T08:22:46;96160.72;;;2.29;74.47
66479;BME280;53294;47.912;13.526;2023-03-15T08:25:16;96160.44;;;2.48;74.15
66479;BME280;53294;47.912;13.526;2023-03-15T08:27:43;96160.50;;;2.53;73.94
66479;BME280;53294;47.912;13.526;2023-03-15T08:30:11;96162.22;;;2.42;74.13
66479;BME280;53294;47.912;13.526;2023-03-15T08:32:39;96172.50;;;2.39;74.37
66479;BME280;53294;47.912;13.526;2023-03-15T08:35:07;96166.47;;;2.43;73.97
66479;BME280;53294;47.912;13.526;2023-03-15T08:37:34;96170.41;;;2.41;73.60
66479;BME280;53294;47.912;13.526;2023-03-15T08:40:01;96171.72;;;2.21;74.93
66479;BME280;53294;47.912;13.526;2023-03-15T08:42:34;96165.03;;;2.19;75.41
66479;BME280;53294;47.912;13.526;2023-03-15T08:45:06;96162.88;;;2.32;74.98
66479;BME280;53294;47.912;13.526;2023-03-15T08:47:34;96162.13;;;2.54;74.27
66479;BME280;53294;47.912;13.526;2023-03-15T08:50:05;96151.94;;;2.46;74.67
66479;BME280;53294;47.912;13.526;2023-03-15T08:52:32;96173.63;;;2.43;74.65
66479;BME280;53294;47.912;13.526;2023-03-15T08:54:59;96170.00;;;2.49;74.77
66479;BME280;53294;47.912;13.526;2023-03-15T08:57:26;96172.38;;;2.67;74.77
66479;BME280;53294;47.912;13.526;2023-03-15T08:59:54;96172.38;;;2.67;74.22
66479;BME280;53294;47.912;13.526;2023-03-15T09:02:21;96168.81;;;2.79;73.84
66479;BME280;53294;47.912;13.526;2023-03-15T09:04:49;96170.47;;;2.85;73.59
66479;BME280;53294;47.912;13.526;2023-03-15T09:07:19;96171.31;;;2.68;73.39
66479;BME280;53294;47.912;13.526;2023-03-15T09:09:47;96173.97;;;2.68;73.61
66479;BME280;53294;47.912;13.526;2023-03-15T09:12:15;96173.81;;;2.75;73.35
66479;BME280;53294;47.912;13.526;2023-03-15T09:14:42;96171.81;;;2.65;72.70
66479;BME280;53294;47.912;13.526;2023-03-15T09:17:09;96177.00;;;2.55;73.12
66479;BME280;53294;47.912;13.526;2023-03-15T09:19:37;96175.19;;;2.61;73.29
66479;BME280;53294;47.912;13.526;2023-03-15T09:22:04;96173.97;;;2.68;73.02
66479;BME280;53294;47.912;13.526;2023-03-15T09:24:49;96179.56;;;2.50;72.95
66479;BME280;53294;47.912;13.526;2023-03-15T09:27:17;96195.56;;;2.55;73.25
66479;BME280;53294;47.912;13.526;2023-03-15T09:29:44;96195.94;;;2.47;73.76
66479;BME280;53294;47.912;13.526;2023-03-15T09:32:10;96177.44;;;2.69;73.30
66479;BME280;53294;47.912;13.526;2023-03-15T09:34:37;96192.56;;;2.51;73.39
66479;BME280;53294;47.912;13.526;2023-03-15T09:37:08;96193.06;;;2.31;73.93
66479;BME280;53294;47.912;13.526;2023-03-15T09:39:35;96205.94;;;2.40;73.58
66479;BME280;53294;47.912;13.526;2023-03-15T09:42:02;96203.13;;;2.12;72.73
66479;BME280;53294;47.912;13.526;2023-03-15T09:44:47;96202.72;;;2.04;72.08
66479;BME280;53294;47.912;13.526;2023-03-15T09:49:56;96200.63;;;2.23;70.20
66479;BME280;53294;47.912;13.526;2023-03-15T09:55:24;96200.28;;;2.53;70.51
66479;BME280;53294;47.912;13.526;2023-03-15T09:57:57;96209.03;;;2.71;71.01
66479;BME280;53294;47.912;13.526;2023-03-15T10:00:40;96212.44;;;2.88;70.87
66479;BME280;53294;47.912;13.526;2023-03-15T10:03:17;96209.38;;;2.96;70.55
66479;BME280;53294;47.912;13.526;2023-03-15T10:05:48;96214.56;;;2.86;68.55
66479;BME280;53294;47.912;13.526;2023-03-15T10:08:17;96226.06;;;2.75;68.60
66479;BME280;53294;47.912;13.526;2023-03-15T10:11:11;96231.44;;;2.80;68.82
66479;BME280;53294;47.912;13.526;2023-03-15T10:16:52;96230.09;;;2.99;68.97
66479;BME280;53294;47.912;13.526;2023-03-15T10:24:54;96238.34;;;2.81;66.93
66479;BME280;53294;47.912;13.526;2023-03-15T10:27:33;96243.16;;;2.84;68.33
66479;BME280;53294;47.912;13.526;2023-03-15T10:30:14;96245.81;;;2.84;68.01
66479;BME280;53294;47.912;13.526;2023-03-15T10:32:44;96242.66;;;2.87;67.53
66479;BME280;53294;47.912;13.526;2023-03-15T10:35:16;96238.41;;;3.25;68.42
66479;BME280;53294;47.912;13.526;2023-03-15T10:37:43;96232.31;;;3.74;68.83
66479;BME280;53294;47.912;13.526;2023-03-15T10:40:11;96239.06;;;3.87;68.30
66479;BME280;53294;47.912;13.526;2023-03-15T10:42:43;96227.00;;;4.01;66.14
66479;BME280;53294;47.912;13.526;2023-03-15T10:45:21;96241.84;;;3.97;65.64
66479;BME280;53294;47.912;13.526;2023-03-15T10:47:49;96247.75;;;3.77;64.10
66479;BME280;53294;47.912;13.526;2023-03-15T10:50:27;96238.13;;;3.71;63.91
66479;BME280;53294;47.912;13.526;2023-03-15T10:52:55;96246.66;;;3.51;63.20
66479;BME280;53294;47.912;13.526;2023-03-15T10:55:34;96242.53;;;3.38;62.24
66479;BME280;53294;47.912;13.526;2023-03-15T10:58:39;96249.72;;;3.37;62.48
66479;BME280;53294;47.912;13.526;2023-03-15T11:01:10;96259.66;;;3.25;61.77
66479;BME280;53294;47.912;13.526;2023-03-15T11:03:40;96249.25;;;3.46;61.09
66479;BME280;53294;47.912;13.526;2023-03-15T11:06:21;96249.88;;;3.31;60.50
66479;BME280;53294;47.912;13.526;2023-03-15T11:08:51;96248.41;;;3.62;61.67
66479;BME280;53294;47.912;13.526;2023-03-15T11:11:18;96243.09;;;3.89;61.47
66479;BME280;53294;47.912;13.526;2023-03-15T11:13:58;96246.53;;;4.49;61.64
66479;BME280;53294;47.912;13.526;2023-03-15T11:16:33;96242.66;;;5.10;61.97
66479;BME280;53294;47.912;13.526;2023-03-15T11:19:01;96237.56;;;5.62;60.73
66479;BME280;53294;47.912;13.526;2023-03-15T11:21:31;96225.63;;;5.90;62.26
66479;BME280;53294;47.912;13.526;2023-03-15T11:24:00;96230.75;;;6.07;59.35
66479;BME280;53294;47.912;13.526;2023-03-15T11:26:32;96233.97;;;6.71;58.50
66479;BME280;53294;47.912;13.526;2023-03-15T11:29:06;96238.41;;;7.11;57.56
66479;BME280;53294;47.912;13.526;2023-03-15T11:31:40;96224.44;;;7.40;57.35
66479;BME280;53294;47.912;13.526;2023-03-15T11:34:12;96231.09;;;7.48;55.30
66479;BME280;53294;47.912;13.526;2023-03-15T11:36:43;96228.91;;;7.60;53.98
66479;BME280;53294;47.912;13.526;2023-03-15T11:39:31;96221.56;;;7.26;56.53
66479;BME280;53294;47.912;13.526;2023-03-15T11:42:05;96217.97;;;8.01;54.14
66479;BME280;53294;47.912;13.526;2023-03-15T11:44:46;96226.97;;;7.71;51.55
66479;BME280;53294;47.912;13.526;2023-03-15T11:47:27;96229.06;;;7.19;50.41
66479;BME280;53294;47.912;13.526;2023-03-15T11:49:58;96235.72;;;7.27;51.32
66479;BME280;53294;47.912;13.526;2023-03-15T11:52:27;96231.56;;;6.79;49.33
66479;BME280;53294;47.912;13.526;2023-03-15T11:54:57;96217.97;;;6.40;51.37
66479;BME280;53294;47.912;13.526;2023-03-15T11:59:56;96230.09;;;5.58;52.18
66479;BME280;53294;47.912;13.526;2023-03-15T12:04:54;96217.44;;;6.33;53.36
66479;BME280;53294;47.912;13.526;2023-03-15T12:07:29;96213.63;;;6.95;51.73
66479;BME280;53294;47.912;13.526;2023-03-15T12:20:26;96198.81;;;7.34;51.55
66479;BME280;53294;47.912;13.526;2023-03-15T12:23:30;96187.34;;;7.33;51.42
66479;BME280;53294;47.912;13.526;2023-03-15T12:26:05;96176.97;;;7.71;49.70
66479;BME280;53294;47.912;13.526;2023-03-15T12:31:07;96169.78;;;7.67;48.90
66479;BME280;53294;47.912;13.526;2023-03-15T12:34:10;96183.09;;;7.27;48.82
66479;BME280;53294;47.912;13.526;2023-03-15T12:36:40;96184.34;;;6.44;50.17
66479;BME280;53294;47.912;13.526;2023-03-15T12:41:42;96173.09;;;6.73;48.18
66479;BME280;53294;47.912;13.526;2023-03-15T12:49:27;96162.09;;;6.95;49.45
66479;BME280;53294;47.912;13.526;2023-03-15T12:52:05;96159.00;;;7.32;48.42
66479;BME280;53294;47.912;13.526;2023-03-15T12:54:46;96165.38;;;6.71;46.30
66479;BME280;53294;47.912;13.526;2023-03-15T12:57:48;96151.47;;;6.69;47.06
66479;BME280;53294;47.912;13.526;2023-03-15T13:00:24;96156.47;;;7.01;44.99
66479;BME280;53294;47.912;13.526;2023-03-15T13:03:02;96154.25;;;7.19;46.32
66479;BME280;53294;47.912;13.526;2023-03-15T13:08:32;96146.16;;;8.19;45.18
66479;BME280;53294;47.912;13.526;2023-03-15T13:11:22;96139.16;;;7.88;43.69
66479;BME280;53294;47.912;13.526;2023-03-15T13:14:00;96147.56;;;7.71;44.09
66479;BME280;53294;47.912;13.526;2023-03-15T13:16:44;96140.44;;;7.96;44.38
66479;BME280;53294;47.912;13.526;2023-03-15T13:20:01;96143.56;;;8.08;43.50
66479;BME280;53294;47.912;13.526;2023-03-15T13:27:55;96154.94;;;6.75;44.91
66479;BME280;53294;47.912;13.526;2023-03-15T13:30:48;96155.66;;;7.01;47.51
66479;BME280;53294;47.912;13.526;2023-03-15T13:33:19;96155.03;;;7.75;45.54
66479;BME280;53294;47.912;13.526;2023-03-15T13:36:00;96144.75;;;8.26;45.11
66479;BME280;53294;47.912;13.526;2023-03-15T13:38:38;96149.44;;;8.40;44.96
66479;BME280;53294;47.912;13.526;2023-03-15T13:43:42;96147.16;;;8.57;43.18
66479;BME280;53294;47.912;13.526;2023-03-15T13:46:09;96144.22;;;9.07;43.05
66479;BME280;53294;47.912;13.526;2023-03-15T13:48:40;96146.00;;;8.93;42.92
66479;BME280;53294;47.912;13.526;2023-03-15T13:51:32;96150.34;;;8.89;42.57
66479;BME280;53294;47.912;13.526;2023-03-15T13:54:20;96151.03;;;8.12;40.61
66479;BME280;53294;47.912;13.526;2023-03-15T13:57:04;96155.78;;;8.20;41.10
66479;BME280;53294;47.912;13.526;2023-03-15T13:59:39;96164.22;;;8.32;42.48
66479;BME280;53294;47.912;13.526;2023-03-15T14:02:14;96159.81;;;7.78;42.01
66479;BME280;53294;47.912;13.526;2023-03-15T14:04:43;96167.50;;;7.45;42.33
66479;BME280;53294;47.912;13.526;2023-03-15T14:10:22;96162.16;;;7.89;43.78
66479;BME280;53294;47.912;13.526;2023-03-15T14:12:50;96164.91;;;8.19;43.27
66479;BME280;53294;47.912;13.526;2023-03-15T14:15:33;96161.97;;;8.50;42.19